createdAt,value
2019-01-26T00:02:07.902Z,10.07
2019-01-26T00:04:41.695Z,24.13
2019-01-26T00:07:18.628Z,13.07
2019-01-26T00:09:52.857Z,9.27
2019-01-26T00:12:26.973Z,11.97
2019-01-26T00:15:01.306Z,12.30
2019-01-26T00:17:35.247Z,16.57
2019-01-26T00:20:12.039Z,20.40
2019-01-26T00:22:45.620Z,11.07
2019-01-26T00:25:22.408Z,28.60
2019-01-26T00:27:55.966Z,22.87
2019-01-26T00:30:29.814Z,16.47
2019-01-26T00:33:06.616Z,16.60
2019-01-26T00:35:41.322Z,14.97
2019-01-26T00:38:17.174Z,18.80
2019-01-26T00:40:51.971Z,13.63
2019-01-26T00:43:25.418Z,12.70
2019-01-26T00:45:59.668Z,39.40
2019-01-26T00:48:33.673Z,19.30
2019-01-26T00:51:17.098Z,59.13
2019-01-26T00:54:02.220Z,24.10
2019-01-26T00:56:43.605Z,24.13
2019-01-26T00:59:19.864Z,34.50
2019-01-26T01:01:53.692Z,20.37
2019-01-26T01:04:28.730Z,21.53
2019-01-26T01:07:01.948Z,33.00
2019-01-26T01:09:36.426Z,14.70
2019-01-26T01:12:10.876Z,21.23
2019-01-26T01:14:45.860Z,18.17
2019-01-26T01:17:21.191Z,27.50
2019-01-26T01:19:54.832Z,14.37
2019-01-26T01:22:29.421Z,9.70
2019-01-26T01:25:03.259Z,11.23
2019-01-26T01:27:37.218Z,8.43
2019-01-26T01:30:17.531Z,35.73
2019-01-26T01:32:51.534Z,14.00
2019-01-26T01:35:25.173Z,18.37
2019-01-26T01:38:00.388Z,31.60
2019-01-26T01:40:43.539Z,18.03
2019-01-26T01:43:17.464Z,17.10
2019-01-26T01:46:00.852Z,15.00
2019-01-26T01:48:35.401Z,11.50
2019-01-26T01:51:12.426Z,16.67
2019-01-26T01:53:47.283Z,15.97
2019-01-26T01:56:22.252Z,12.90
2019-01-26T01:58:57.137Z,12.57
2019-01-26T02:01:30.699Z,10.53
2019-01-26T02:04:07.070Z,13.03
2019-01-26T02:06:44.181Z,17.17
2019-01-26T02:09:17.982Z,14.83
2019-01-26T02:11:51.939Z,16.73
2019-01-26T02:14:25.925Z,17.20
2019-01-26T02:17:02.289Z,14.77
2019-01-26T02:19:36.928Z,9.83
2019-01-26T02:22:14.260Z,10.00
2019-01-26T02:24:48.110Z,31.47
2019-01-26T02:27:21.947Z,19.30
2019-01-26T02:29:55.919Z,20.80
2019-01-26T02:32:29.572Z,16.03
2019-01-26T02:35:05.583Z,13.90
2019-01-26T02:37:42.933Z,13.97
2019-01-26T02:40:19.785Z,14.30
2019-01-26T02:42:53.410Z,13.37
2019-01-26T02:45:27.765Z,14.60
2019-01-26T02:48:01.140Z,10.27
2019-01-26T02:50:35.506Z,20.53
2019-01-26T02:53:09.078Z,18.17
2019-01-26T02:55:44.487Z,7.17
2019-01-26T02:58:18.126Z,12.57
2019-01-26T03:00:53.946Z,9.53
2019-01-26T03:03:27.522Z,7.17
2019-01-26T03:06:01.573Z,8.20
2019-01-26T03:08:35.781Z,6.50
2019-01-26T03:11:09.784Z,8.77
2019-01-26T03:13:43.513Z,8.90
2019-01-26T03:16:25.706Z,11.63
2019-01-26T03:18:59.320Z,7.93
2019-01-26T03:21:33.403Z,20.23
2019-01-26T03:24:07.282Z,7.90
2019-01-26T03:26:41.064Z,6.73
2019-01-26T03:29:14.690Z,4.67
2019-01-26T03:31:48.741Z,6.47
2019-01-26T03:34:22.347Z,5.23
2019-01-26T03:36:59.128Z,10.77
2019-01-26T03:39:32.932Z,20.50
2019-01-26T03:42:07.228Z,8.53
2019-01-26T03:44:40.556Z,8.53
2019-01-26T03:47:15.333Z,7.10
2019-01-26T03:49:48.966Z,18.67
2019-01-26T03:52:23.132Z,7.43
2019-01-26T03:54:59.127Z,4.60
2019-01-26T03:57:33.443Z,32.43
2019-01-26T04:00:11.813Z,13.50
2019-01-26T04:02:51.151Z,7.57
2019-01-26T04:05:27.675Z,20.77
2019-01-26T04:08:02.875Z,3.67
2019-01-26T04:10:42.021Z,6.60
2019-01-26T04:13:15.997Z,7.30
2019-01-26T04:15:49.595Z,18.20
2019-01-26T04:18:23.686Z,5.90
2019-01-26T04:20:57.347Z,8.10
2019-01-26T04:23:31.386Z,13.70
2019-01-26T04:26:08.675Z,19.20
2019-01-26T04:28:42.332Z,14.43
2019-01-26T04:31:16.256Z,8.57
2019-01-26T04:33:50.380Z,12.97
2019-01-26T04:36:26.125Z,13.93
2019-01-26T04:39:00.082Z,13.50
2019-01-26T04:41:33.712Z,14.83
2019-01-26T04:44:12.841Z,26.57
2019-01-26T04:46:46.692Z,24.67
2019-01-26T04:49:20.826Z,18.50
2019-01-26T04:51:56.753Z,12.87
2019-01-26T04:54:30.808Z,10.77
2019-01-26T04:57:04.411Z,16.23
2019-01-26T04:59:38.343Z,20.03
2019-01-26T05:02:14.381Z,22.97
2019-01-26T05:04:48.304Z,25.90
2019-01-26T05:07:21.966Z,11.30
2019-01-26T05:09:55.695Z,13.60
2019-01-26T05:12:29.731Z,8.63
2019-01-26T05:15:03.624Z,31.20
2019-01-26T05:17:39.377Z,31.20
2019-01-26T05:20:17.062Z,23.40
2019-01-26T05:22:53.132Z,16.33
2019-01-26T05:25:27.003Z,9.83
2019-01-26T05:28:00.548Z,11.27
2019-01-26T05:30:35.517Z,9.03
2019-01-26T05:33:09.385Z,6.40
2019-01-26T05:35:45.649Z,8.47
2019-01-26T05:38:19.253Z,8.03
2019-01-26T05:40:53.071Z,8.73
2019-01-26T05:43:26.824Z,14.53
2019-01-26T05:46:01.770Z,11.10
2019-01-26T05:48:35.673Z,19.17
2019-01-26T05:51:10.376Z,41.90
2019-01-26T05:53:46.540Z,31.87
2019-01-26T05:56:20.591Z,29.07
2019-01-26T05:58:57.882Z,16.23
2019-01-26T06:01:31.771Z,24.70
2019-01-26T06:04:05.628Z,25.10
2019-01-26T06:06:39.486Z,13.33
2019-01-26T06:09:15.555Z,26.13
2019-01-26T06:11:49.563Z,14.03
2019-01-26T06:14:32.102Z,13.67
2019-01-26T06:17:06.527Z,22.03
2019-01-26T06:19:40.138Z,23.57
2019-01-26T06:22:14.079Z,28.10
2019-01-26T06:24:47.639Z,36.30
2019-01-26T06:27:22.009Z,31.93
2019-01-26T06:29:55.682Z,27.53
2019-01-26T06:32:29.599Z,21.23
2019-01-26T06:35:03.257Z,16.67
2019-01-26T06:37:37.499Z,24.47
2019-01-26T06:40:13.779Z,24.73
2019-01-26T06:42:47.552Z,24.77
2019-01-26T06:45:26.353Z,23.57
2019-01-26T06:48:02.321Z,29.40
2019-01-26T06:50:35.759Z,14.83
2019-01-26T06:53:09.570Z,12.17
2019-01-26T06:55:43.264Z,24.63
2019-01-26T06:58:17.424Z,20.97
2019-01-26T07:00:53.918Z,25.20
2019-01-26T07:03:28.048Z,30.50
2019-01-26T07:06:18.004Z,36.73
2019-01-26T07:08:52.051Z,26.00
2019-01-26T07:11:25.687Z,24.40
2019-01-26T07:14:01.840Z,22.60
2019-01-26T07:16:36.704Z,31.03
2019-01-26T07:19:10.444Z,17.20
2019-01-26T07:21:45.364Z,21.50
2019-01-26T07:24:19.224Z,17.03
2019-01-26T07:26:53.285Z,17.77
2019-01-26T07:29:27.064Z,22.40
2019-01-26T07:32:00.858Z,18.47
2019-01-26T07:34:35.908Z,20.17
2019-01-26T07:37:10.402Z,28.67
2019-01-26T07:39:44.341Z,15.87
2019-01-26T07:42:18.414Z,22.20
2019-01-26T07:44:52.270Z,20.37
2019-01-26T07:47:26.729Z,20.23
2019-01-26T07:50:00.965Z,18.20
2019-01-26T07:52:35.550Z,17.70
2019-01-26T07:55:10.748Z,26.10
2019-01-26T07:57:46.295Z,32.43
2019-01-26T08:00:27.260Z,26.27
2019-01-26T08:03:01.537Z,25.50
2019-01-26T08:05:36.166Z,23.30
2019-01-26T08:08:10.425Z,25.40
2019-01-26T08:10:44.973Z,33.20
2019-01-26T08:13:19.411Z,30.20
2019-01-26T08:15:53.679Z,29.33
2019-01-26T08:18:29.393Z,39.47
2019-01-26T08:21:03.189Z,43.47
2019-01-26T08:23:37.088Z,34.20
2019-01-26T08:26:13.167Z,32.57
2019-01-26T08:28:49.296Z,23.50
2019-01-26T08:31:25.040Z,29.57
2019-01-26T08:33:59.248Z,27.43
2019-01-26T08:36:35.303Z,24.83
2019-01-26T08:39:11.161Z,32.80
2019-01-26T08:41:51.729Z,19.93
2019-01-26T08:44:26.305Z,20.27
2019-01-26T08:47:03.139Z,19.63
2019-01-26T08:49:37.796Z,21.43
2019-01-26T08:52:13.093Z,23.20
2019-01-26T08:54:47.770Z,21.67
2019-01-26T08:57:22.568Z,38.90
2019-01-26T08:59:57.034Z,33.13
2019-01-26T09:02:50.068Z,16.00
2019-01-26T09:05:25.838Z,17.20
2019-01-26T09:07:59.712Z,19.27
2019-01-26T09:10:34.304Z,41.10
2019-01-26T09:13:09.610Z,23.80
2019-01-26T09:15:45.850Z,23.20
2019-01-26T09:18:20.522Z,18.80
2019-01-26T09:20:55.097Z,16.90
2019-01-26T09:23:30.091Z,20.23
2019-01-26T09:26:07.794Z,20.83
2019-01-26T09:28:41.831Z,24.50
2019-01-26T09:31:19.771Z,19.90
2019-01-26T09:33:57.819Z,18.70
2019-01-26T09:36:32.107Z,34.73
2019-01-26T09:39:20.555Z,21.40
2019-01-26T09:41:54.337Z,21.87
2019-01-26T09:44:28.755Z,38.33
2019-01-26T09:47:04.814Z,34.73
2019-01-26T09:49:39.696Z,23.27
2019-01-26T09:52:14.715Z,26.10
2019-01-26T09:54:52.292Z,22.17
2019-01-26T09:57:31.232Z,30.17
2019-01-26T10:00:05.685Z,22.30
2019-01-26T10:02:40.591Z,30.53
2019-01-26T10:05:24.249Z,22.57
2019-01-26T10:07:59.931Z,25.67
2019-01-26T10:10:34.048Z,25.53
2019-01-26T10:13:09.851Z,25.37
2019-01-26T10:15:44.491Z,36.27
2019-01-26T10:18:20.180Z,29.07
2019-01-26T10:20:53.821Z,47.80
2019-01-26T10:23:29.238Z,26.00
2019-01-26T10:26:06.278Z,22.37
2019-01-26T10:28:40.584Z,29.23
2019-01-26T10:31:15.569Z,24.40
2019-01-26T10:33:50.832Z,25.90
2019-01-26T10:36:48.546Z,20.87
2019-01-26T10:39:24.665Z,26.97
2019-01-26T10:42:22.738Z,24.50
2019-01-26T10:44:57.787Z,33.33
2019-01-26T10:47:33.196Z,21.87
2019-01-26T10:50:08.779Z,23.40
2019-01-26T10:52:44.062Z,28.67
2019-01-26T10:55:21.157Z,21.80
2019-01-26T10:57:53.559Z,23.50
2019-01-26T11:00:28.091Z,23.63
2019-01-26T11:03:04.654Z,28.57
2019-01-26T11:05:42.468Z,22.20
2019-01-26T11:08:21.844Z,28.37
2019-01-26T11:10:55.783Z,53.40
2019-01-26T11:13:30.277Z,27.10
2019-01-26T11:16:05.983Z,25.13
2019-01-26T11:18:41.510Z,18.93
2019-01-26T11:21:22.487Z,34.57
2019-01-26T11:23:58.067Z,30.93
2019-01-26T11:26:32.819Z,33.27
2019-01-26T11:29:07.422Z,18.27
2019-01-26T11:31:44.997Z,22.63
2019-01-26T11:34:20.995Z,28.83
2019-01-26T11:36:55.896Z,23.30
2019-01-26T11:39:30.671Z,29.37
2019-01-26T11:42:05.465Z,18.53
2019-01-26T11:44:41.480Z,20.60
2019-01-26T11:47:20.688Z,27.63
2019-01-26T11:50:02.595Z,29.47
2019-01-26T11:52:38.415Z,34.87
2019-01-26T11:55:34.503Z,29.67
2019-01-26T11:58:12.555Z,27.40
2019-01-26T12:01:04.885Z,20.73
2019-01-26T12:03:54.171Z,29.77
2019-01-26T12:06:39.781Z,28.07
2019-01-26T12:09:17.683Z,8.57
2019-01-26T12:11:53.100Z,19.03
2019-01-26T12:14:28.551Z,20.00
2019-01-26T12:17:05.059Z,10.97
2019-01-26T12:19:40.343Z,12.23
2019-01-26T12:22:18.907Z,23.37
2019-01-26T12:24:56.424Z,13.27
2019-01-26T12:27:35.963Z,14.03
2019-01-26T12:30:12.306Z,11.27
2019-01-26T12:32:46.870Z,8.17
2019-01-26T12:35:23.896Z,9.43
2019-01-26T12:37:58.871Z,15.57
2019-01-26T12:40:33.510Z,12.17
2019-01-26T12:43:07.754Z,25.37
2019-01-26T12:45:45.848Z,20.10
2019-01-26T12:48:25.090Z,14.13
2019-01-26T12:51:04.888Z,19.43
2019-01-26T12:53:41.411Z,12.17
2019-01-26T12:56:16.526Z,13.77
2019-01-26T12:58:52.047Z,13.73
2019-01-26T13:01:28.063Z,15.10
2019-01-26T13:04:02.467Z,10.00
2019-01-26T13:06:37.067Z,12.40
2019-01-26T13:09:13.376Z,15.70
2019-01-26T13:11:48.811Z,8.10
2019-01-26T13:14:27.917Z,11.30
2019-01-26T13:17:02.717Z,23.00
2019-01-26T13:19:37.439Z,16.10
2019-01-26T13:22:11.257Z,20.20
2019-01-26T13:24:52.208Z,23.93
2019-01-26T13:27:27.614Z,11.60
2019-01-26T13:30:04.001Z,20.37
2019-01-26T13:32:38.810Z,14.93
2019-01-26T13:35:14.567Z,22.20
2019-01-26T13:37:49.464Z,20.27
2019-01-26T13:40:23.551Z,19.27
2019-01-26T13:42:57.632Z,15.70
2019-01-26T13:45:32.055Z,26.00
2019-01-26T13:48:07.625Z,15.87
2019-01-26T13:50:41.926Z,16.27
2019-01-26T13:53:16.114Z,16.17
2019-01-26T13:55:50.290Z,18.17
2019-01-26T13:58:25.266Z,17.90
2019-01-26T14:00:59.231Z,21.57
2019-01-26T14:03:34.395Z,14.53
2019-01-26T14:06:09.295Z,14.17
2019-01-26T14:08:45.927Z,19.57
2019-01-26T14:11:20.411Z,19.50
2019-01-26T14:13:55.219Z,19.63
2019-01-26T14:16:37.110Z,27.67
2019-01-26T14:19:12.333Z,16.47
2019-01-26T14:21:48.564Z,15.67
2019-01-26T14:24:23.124Z,14.43
2019-01-26T14:26:58.757Z,17.97
2019-01-26T14:29:37.999Z,15.87
2019-01-26T14:32:12.303Z,17.20
2019-01-26T14:34:47.429Z,18.47
2019-01-26T14:37:21.288Z,18.37
2019-01-26T14:39:59.299Z,16.43
2019-01-26T14:42:33.790Z,17.87
2019-01-26T14:45:10.226Z,14.83
2019-01-26T14:47:47.608Z,15.00
2019-01-26T14:50:22.923Z,23.50
2019-01-26T14:52:59.915Z,16.60
2019-01-26T14:55:36.403Z,19.37
2019-01-26T14:58:14.194Z,21.23
2019-01-26T15:00:48.558Z,22.93
2019-01-26T15:03:22.569Z,16.33
2019-01-26T15:05:56.916Z,28.07
2019-01-26T15:08:30.938Z,20.43
2019-01-26T15:11:08.065Z,25.03
2019-01-26T15:13:42.292Z,20.93
2019-01-26T15:16:17.094Z,24.03
2019-01-26T15:18:52.245Z,21.50
2019-01-26T15:21:27.509Z,31.40
2019-01-26T15:24:02.920Z,18.30
2019-01-26T15:26:43.427Z,46.33
2019-01-26T15:29:23.692Z,25.07
2019-01-26T15:31:58.629Z,29.40
2019-01-26T15:34:34.445Z,25.63
2019-01-26T15:37:10.543Z,32.67
2019-01-26T15:39:47.886Z,26.00
2019-01-26T15:42:21.903Z,27.03
2019-01-26T15:44:56.426Z,52.47
2019-01-26T15:47:31.307Z,38.00
2019-01-26T15:50:13.035Z,37.43
2019-01-26T15:52:45.526Z,41.57
2019-01-26T15:55:25.863Z,57.13
2019-01-26T15:58:02.091Z,54.67
2019-01-26T16:00:42.034Z,49.23
2019-01-26T16:03:16.530Z,51.17
2019-01-26T16:05:51.256Z,51.97
2019-01-26T16:08:25.810Z,59.33
2019-01-26T16:11:01.427Z,63.37
2019-01-26T16:13:43.900Z,50.50
2019-01-26T16:16:18.994Z,57.33
2019-01-26T16:18:53.096Z,77.17
2019-01-26T16:21:27.815Z,43.80
2019-01-26T16:24:02.137Z,44.17
2019-01-26T16:26:37.134Z,40.40
2019-01-26T16:29:13.209Z,38.57
2019-01-26T16:31:47.814Z,42.30
2019-01-26T16:34:23.084Z,57.23
2019-01-26T16:36:59.823Z,59.90
2019-01-26T16:39:35.032Z,56.60
2019-01-26T16:42:11.118Z,67.67
2019-01-26T16:44:47.952Z,56.37
2019-01-26T16:47:22.051Z,39.63
2019-01-26T16:50:04.195Z,32.00
2019-01-26T16:52:37.895Z,36.10
2019-01-26T16:55:17.193Z,40.07
2019-01-26T16:57:52.985Z,50.70
2019-01-26T17:00:53.540Z,34.50
2019-01-26T17:03:29.006Z,38.47
2019-01-26T17:06:03.579Z,31.40
2019-01-26T17:08:40.161Z,40.43
2019-01-26T17:11:15.872Z,40.37
2019-01-26T17:13:52.732Z,48.50
2019-01-26T17:16:27.800Z,39.43
2019-01-26T17:19:03.458Z,58.97
2019-01-26T17:21:39.095Z,38.43
2019-01-26T17:24:13.358Z,38.80
2019-01-26T17:26:52.758Z,40.47
2019-01-26T17:29:25.264Z,46.57
2019-01-26T17:32:00.410Z,39.60
2019-01-26T17:34:37.699Z,65.27
2019-01-26T17:37:15.973Z,38.70
2019-01-26T17:39:50.575Z,37.47
2019-01-26T17:42:24.921Z,53.87
2019-01-26T17:44:59.312Z,32.07
2019-01-26T17:47:33.425Z,40.27
2019-01-26T17:50:09.251Z,46.30
2019-01-26T17:52:48.324Z,44.20
2019-01-26T17:55:23.748Z,44.93
2019-01-26T17:57:58.643Z,47.83
2019-01-26T18:00:54.831Z,54.07
2019-01-26T18:03:30.199Z,44.67
2019-01-26T18:06:06.041Z,31.03
2019-01-26T18:08:47.568Z,27.63
2019-01-26T18:11:24.059Z,30.03
2019-01-26T18:13:58.371Z,27.70
2019-01-26T18:16:33.285Z,45.17
2019-01-26T18:19:07.745Z,37.13
2019-01-26T18:21:43.077Z,29.10
2019-01-26T18:24:19.060Z,34.43
2019-01-26T18:26:59.089Z,41.10
2019-01-26T18:29:33.845Z,46.10
2019-01-26T18:32:08.655Z,35.53
2019-01-26T18:34:44.057Z,50.53
2019-01-26T18:37:18.460Z,35.80
2019-01-26T18:39:52.628Z,40.83
2019-01-26T18:42:27.812Z,44.40
2019-01-26T18:45:02.687Z,46.00
2019-01-26T18:47:40.367Z,51.03
2019-01-26T18:50:21.312Z,49.00
2019-01-26T18:52:56.719Z,62.57
2019-01-26T18:55:32.755Z,55.30
2019-01-26T18:58:08.726Z,52.20
2019-01-26T19:00:48.300Z,62.83
2019-01-26T19:04:02.865Z,59.37
2019-01-26T19:06:37.334Z,58.93
2019-01-26T19:09:13.665Z,60.13
2019-01-26T19:11:47.832Z,80.57
2019-01-26T19:14:22.756Z,85.97
2019-01-26T19:16:57.997Z,95.03
2019-01-26T19:19:35.445Z,119.00
2019-01-26T19:22:10.866Z,55.63
2019-01-26T19:24:47.356Z,63.43
2019-01-26T19:27:23.805Z,57.10
2019-01-26T19:30:00.526Z,70.77
2019-01-26T19:32:37.576Z,55.27
2019-01-26T19:35:13.215Z,105.43
2019-01-26T19:37:47.323Z,85.53
2019-01-26T19:40:23.408Z,54.50
2019-01-26T19:42:58.281Z,52.83
2019-01-26T19:45:33.721Z,58.03
2019-01-26T19:48:07.723Z,55.87
2019-01-26T19:50:42.130Z,71.00
2019-01-26T19:53:18.076Z,64.50
2019-01-26T19:55:53.152Z,58.87
2019-01-26T19:58:28.945Z,84.87
2019-01-26T20:01:03.673Z,80.90
2019-01-26T20:03:38.049Z,96.87
2019-01-26T20:06:19.568Z,75.77
2019-01-26T20:08:53.643Z,57.03
2019-01-26T20:11:28.089Z,79.97
2019-01-26T20:14:02.916Z,59.47
2019-01-26T20:16:37.720Z,80.07
2019-01-26T20:19:14.856Z,80.30
2019-01-26T20:21:53.566Z,82.43
2019-01-26T20:24:30.696Z,75.80
2019-01-26T20:27:08.402Z,74.37
2019-01-26T20:29:46.451Z,83.50
2019-01-26T20:32:21.284Z,107.00
2019-01-26T20:34:56.045Z,142.83
2019-01-26T20:37:30.834Z,117.43
2019-01-26T20:40:10.154Z,140.17
2019-01-26T20:42:47.409Z,133.00
2019-01-26T20:45:24.239Z,143.97
2019-01-26T20:47:58.862Z,123.50
2019-01-26T20:50:33.445Z,145.60
2019-01-26T20:53:08.322Z,150.10
2019-01-26T20:55:43.214Z,147.83
2019-01-26T20:58:21.134Z,142.50
2019-01-26T21:00:55.757Z,107.90
2019-01-26T21:03:30.845Z,136.60
2019-01-26T21:06:04.882Z,98.00
2019-01-26T21:08:38.868Z,106.37
2019-01-26T21:11:15.669Z,121.20
2019-01-26T21:13:50.263Z,133.00
2019-01-26T21:16:24.221Z,131.83
2019-01-26T21:18:58.609Z,103.73
2019-01-26T21:21:33.189Z,88.17
2019-01-26T21:24:11.009Z,89.60
2019-01-26T21:26:44.602Z,117.10
2019-01-26T21:29:18.704Z,93.90
2019-01-26T21:31:53.076Z,90.83
2019-01-26T21:34:27.658Z,95.97
2019-01-26T21:37:02.625Z,76.73
2019-01-26T21:39:37.250Z,88.77
2019-01-26T21:42:11.200Z,95.03
2019-01-26T21:44:45.947Z,94.67
2019-01-26T21:47:22.237Z,96.57
2019-01-26T21:49:56.382Z,86.77
2019-01-26T21:52:31.495Z,90.03
2019-01-26T21:55:06.699Z,69.07
2019-01-26T21:57:40.961Z,70.77
2019-01-26T22:00:20.042Z,79.23
2019-01-26T22:02:56.545Z,59.67
2019-01-26T22:05:32.593Z,80.63
2019-01-26T22:08:06.785Z,65.70
2019-01-26T22:10:40.992Z,66.83
2019-01-26T22:13:14.667Z,64.47
2019-01-26T22:15:49.243Z,61.00
2019-01-26T22:18:23.017Z,69.40
2019-01-26T22:20:57.141Z,60.57
2019-01-26T22:23:31.708Z,74.30
2019-01-26T22:26:06.973Z,49.63
2019-01-26T22:28:43.044Z,96.77
2019-01-26T22:31:17.291Z,51.07
2019-01-26T22:33:51.917Z,45.83
2019-01-26T22:36:27.430Z,55.57
2019-01-26T22:39:02.801Z,61.13
2019-01-26T22:41:38.631Z,48.50
2019-01-26T22:44:15.902Z,45.17
2019-01-26T22:46:50.547Z,47.50
2019-01-26T22:49:25.268Z,62.17
2019-01-26T22:51:59.456Z,58.80
2019-01-26T22:54:33.261Z,53.70
2019-01-26T22:57:07.491Z,50.43
2019-01-26T22:59:43.479Z,53.40
2019-01-26T23:02:17.835Z,57.67
2019-01-26T23:05:19.800Z,44.20
2019-01-26T23:08:00.072Z,40.33
2019-01-26T23:11:07.904Z,55.30
2019-01-26T23:14:08.921Z,59.40
2019-01-26T23:17:11.831Z,55.23
2019-01-26T23:20:07.631Z,50.63
2019-01-26T23:23:03.327Z,43.10
2019-01-26T23:26:35.242Z,37.97
2019-01-26T23:29:53.033Z,41.83
2019-01-26T23:32:27.668Z,41.20
2019-01-26T23:35:01.353Z,32.53
2019-01-26T23:37:35.603Z,35.00
2019-01-26T23:40:11.520Z,36.93
2019-01-26T23:42:46.084Z,21.37
2019-01-26T23:45:20.105Z,31.37
2019-01-26T23:47:56.104Z,35.97
2019-01-26T23:50:32.091Z,31.40
2019-01-26T23:53:05.997Z,32.73
2019-01-26T23:55:42.129Z,27.50
2019-01-26T23:58:16.475Z,29.53
